sensor_id;sensor_type;location;lat;lon;timestamp;P1;durP1;ratioP1;P2;durP2;ratioP2
49910;SDS011;35803;53.096;5.844;2023-03-01T00:01:21;21.80;;;9.27;;
49910;SDS011;35803;53.096;5.844;2023-03-01T00:03:48;20.48;;;8.73;;
49910;SDS011;35803;53.096;5.844;2023-03-01T00:06:14;19.77;;;9.02;;
49910;SDS011;35803;53.096;5.844;2023-03-01T00:08:40;19.20;;;9.00;;
49910;SDS011;35803;53.096;5.844;2023-03-01T00:13:38;16.30;;;8.77;;
49910;SDS011;35803;53.096;5.844;2023-03-01T00:16:04;19.67;;;9.02;;
49910;SDS011;35803;53.096;5.844;2023-03-01T00:18:30;17.52;;;8.10;;
49910;SDS011;35803;53.096;5.844;2023-03-01T00:20:56;19.08;;;8.70;;
49910;SDS011;35803;53.096;5.844;2023-03-01T00:23:21;25.33;;;8.43;;
49910;SDS011;35803;53.096;5.844;2023-03-01T00:25:48;23.88;;;10.25;;
49910;SDS011;35803;53.096;5.844;2023-03-01T00:28:13;25.63;;;10.80;;
49910;SDS011;35803;53.096;5.844;2023-03-01T00:30:39;22.88;;;10.00;;
49910;SDS011;35803;53.096;5.844;2023-03-01T00:33:05;22.88;;;10.75;;
49910;SDS011;35803;53.096;5.844;2023-03-01T00:35:31;22.05;;;10.15;;
49910;SDS011;35803;53.096;5.844;2023-03-01T00:37:57;19.17;;;9.15;;
49910;SDS011;35803;53.096;5.844;2023-03-01T00:40:23;17.55;;;8.52;;
49910;SDS011;35803;53.096;5.844;2023-03-01T00:42:49;18.40;;;9.57;;
49910;SDS011;35803;53.096;5.844;2023-03-01T00:45:15;17.75;;;8.82;;
49910;SDS011;35803;53.096;5.844;2023-03-01T00:47:41;17.10;;;8.40;;
49910;SDS011;35803;53.096;5.844;2023-03-01T00:50:07;17.50;;;8.82;;
49910;SDS011;35803;53.096;5.844;2023-03-01T00:52:33;18.92;;;9.35;;
49910;SDS011;35803;53.096;5.844;2023-03-01T00:54:58;21.10;;;9.68;;
49910;SDS011;35803;53.096;5.844;2023-03-01T00:57:24;21.15;;;8.90;;
49910;SDS011;35803;53.096;5.844;2023-03-01T00:59:49;14.20;;;7.82;;
49910;SDS011;35803;53.096;5.844;2023-03-01T01:02:18;15.88;;;8.73;;
49910;SDS011;35803;53.096;5.844;2023-03-01T01:04:44;14.02;;;8.05;;
49910;SDS011;35803;53.096;5.844;2023-03-01T01:07:10;13.40;;;7.22;;
49910;SDS011;35803;53.096;5.844;2023-03-01T01:09:38;12.40;;;6.97;;
49910;SDS011;35803;53.096;5.844;2023-03-01T01:12:03;13.85;;;7.40;;
49910;SDS011;35803;53.096;5.844;2023-03-01T01:14:29;12.50;;;7.20;;
49910;SDS011;35803;53.096;5.844;2023-03-01T01:16:55;16.88;;;7.35;;
49910;SDS011;35803;53.096;5.844;2023-03-01T01:19:21;12.65;;;6.65;;
49910;SDS011;35803;53.096;5.844;2023-03-01T01:21:47;10.75;;;6.35;;
49910;SDS011;35803;53.096;5.844;2023-03-01T01:24:13;13.15;;;6.90;;
49910;SDS011;35803;53.096;5.844;2023-03-01T01:26:40;13.80;;;6.75;;
49910;SDS011;35803;53.096;5.844;2023-03-01T01:29:06;12.93;;;5.72;;
49910;SDS011;35803;53.096;5.844;2023-03-01T01:31:32;8.65;;;5.25;;
49910;SDS011;35803;53.096;5.844;2023-03-01T01:33:59;13.63;;;5.93;;
49910;SDS011;35803;53.096;5.844;2023-03-01T01:36:26;14.32;;;5.47;;
49910;SDS011;35803;53.096;5.844;2023-03-01T01:38:52;11.35;;;5.57;;
49910;SDS011;35803;53.096;5.844;2023-03-01T01:41:18;11.50;;;5.45;;
49910;SDS011;35803;53.096;5.844;2023-03-01T01:43:49;9.07;;;5.05;;
49910;SDS011;35803;53.096;5.844;2023-03-01T01:46:38;24.15;;;5.63;;
49910;SDS011;35803;53.096;5.844;2023-03-01T01:49:16;12.90;;;5.03;;
49910;SDS011;35803;53.096;5.844;2023-03-01T01:51:43;11.63;;;5.50;;
49910;SDS011;35803;53.096;5.844;2023-03-01T01:54:14;10.60;;;5.40;;
49910;SDS011;35803;53.096;5.844;2023-03-01T01:56:42;8.98;;;5.18;;
49910;SDS011;35803;53.096;5.844;2023-03-01T01:59:09;8.75;;;5.28;;
49910;SDS011;35803;53.096;5.844;2023-03-01T02:01:38;19.02;;;5.43;;
49910;SDS011;35803;53.096;5.844;2023-03-01T02:04:03;17.77;;;5.22;;
49910;SDS011;35803;53.096;5.844;2023-03-01T02:06:37;7.57;;;5.00;;
49910;SDS011;35803;53.096;5.844;2023-03-01T02:09:07;15.40;;;4.65;;
49910;SDS011;35803;53.096;5.844;2023-03-01T02:11:34;14.10;;;4.55;;
49910;SDS011;35803;53.096;5.844;2023-03-01T02:14:03;20.88;;;4.80;;
49910;SDS011;35803;53.096;5.844;2023-03-01T02:16:29;27.60;;;5.07;;
49910;SDS011;35803;53.096;5.844;2023-03-01T02:18:56;7.43;;;4.30;;
49910;SDS011;35803;53.096;5.844;2023-03-01T02:24:28;14.50;;;4.57;;
49910;SDS011;35803;53.096;5.844;2023-03-01T02:26:55;10.48;;;4.30;;
49910;SDS011;35803;53.096;5.844;2023-03-01T02:29:24;7.32;;;4.07;;
49910;SDS011;35803;53.096;5.844;2023-03-01T02:31:51;22.45;;;4.07;;
49910;SDS011;35803;53.096;5.844;2023-03-01T02:34:20;43.30;;;5.75;;
49910;SDS011;35803;53.096;5.844;2023-03-01T02:36:54;17.48;;;5.25;;
49910;SDS011;35803;53.096;5.844;2023-03-01T02:39:30;17.63;;;4.65;;
49910;SDS011;35803;53.096;5.844;2023-03-01T02:41:58;16.60;;;4.53;;
49910;SDS011;35803;53.096;5.844;2023-03-01T02:44:25;14.07;;;4.30;;
49910;SDS011;35803;53.096;5.844;2023-03-01T02:46:51;8.27;;;3.97;;
49910;SDS011;35803;53.096;5.844;2023-03-01T02:51:47;21.67;;;4.15;;
49910;SDS011;35803;53.096;5.844;2023-03-01T02:56:56;14.05;;;4.32;;
49910;SDS011;35803;53.096;5.844;2023-03-01T02:59:22;9.27;;;4.20;;
49910;SDS011;35803;53.096;5.844;2023-03-01T03:01:50;21.08;;;4.78;;
49910;SDS011;35803;53.096;5.844;2023-03-01T03:04:16;7.57;;;4.45;;
49910;SDS011;35803;53.096;5.844;2023-03-01T03:06:46;19.23;;;4.30;;
49910;SDS011;35803;53.096;5.844;2023-03-01T03:09:14;5.85;;;4.45;;
49910;SDS011;35803;53.096;5.844;2023-03-01T03:11:40;23.73;;;4.30;;
49910;SDS011;35803;53.096;5.844;2023-03-01T03:14:06;31.65;;;4.95;;
49910;SDS011;35803;53.096;5.844;2023-03-01T03:16:41;16.13;;;4.85;;
49910;SDS011;35803;53.096;5.844;2023-03-01T03:19:08;12.35;;;4.15;;
49910;SDS011;35803;53.096;5.844;2023-03-01T03:21:34;15.02;;;4.20;;
49910;SDS011;35803;53.096;5.844;2023-03-01T03:24:00;22.65;;;4.50;;
49910;SDS011;35803;53.096;5.844;2023-03-01T03:26:26;7.85;;;4.15;;
49910;SDS011;35803;53.096;5.844;2023-03-01T03:28:51;16.92;;;4.53;;
49910;SDS011;35803;53.096;5.844;2023-03-01T03:31:17;5.10;;;4.32;;
49910;SDS011;35803;53.096;5.844;2023-03-01T03:33:43;14.57;;;4.43;;
49910;SDS011;35803;53.096;5.844;2023-03-01T03:36:08;14.20;;;4.03;;
49910;SDS011;35803;53.096;5.844;2023-03-01T03:38:38;8.40;;;4.07;;
49910;SDS011;35803;53.096;5.844;2023-03-01T03:41:05;4.63;;;3.92;;
49910;SDS011;35803;53.096;5.844;2023-03-01T03:43:32;4.45;;;3.95;;
49910;SDS011;35803;53.096;5.844;2023-03-01T03:45:59;6.68;;;3.72;;
49910;SDS011;35803;53.096;5.844;2023-03-01T03:48:25;10.10;;;3.78;;
49910;SDS011;35803;53.096;5.844;2023-03-01T03:50:53;11.80;;;3.38;;
49910;SDS011;35803;53.096;5.844;2023-03-01T03:53:21;3.63;;;3.20;;
49910;SDS011;35803;53.096;5.844;2023-03-01T03:55:47;3.97;;;3.58;;
49910;SDS011;35803;53.096;5.844;2023-03-01T03:58:26;4.18;;;3.60;;
49910;SDS011;35803;53.096;5.844;2023-03-01T04:00:53;8.55;;;3.88;;
49910;SDS011;35803;53.096;5.844;2023-03-01T04:03:24;6.93;;;3.45;;
49910;SDS011;35803;53.096;5.844;2023-03-01T04:05:50;8.85;;;3.53;;
49910;SDS011;35803;53.096;5.844;2023-03-01T04:08:18;5.10;;;3.45;;
49910;SDS011;35803;53.096;5.844;2023-03-01T04:10:48;6.05;;;3.90;;
49910;SDS011;35803;53.096;5.844;2023-03-01T04:13:16;9.63;;;4.32;;
49910;SDS011;35803;53.096;5.844;2023-03-01T04:15:45;10.07;;;4.07;;
49910;SDS011;35803;53.096;5.844;2023-03-01T04:18:15;11.75;;;4.28;;
49910;SDS011;35803;53.096;5.844;2023-03-01T04:20:41;9.77;;;4.60;;
49910;SDS011;35803;53.096;5.844;2023-03-01T04:23:09;15.30;;;4.57;;
49910;SDS011;35803;53.096;5.844;2023-03-01T04:25:52;6.63;;;4.32;;
49910;SDS011;35803;53.096;5.844;2023-03-01T04:28:34;12.20;;;4.38;;
49910;SDS011;35803;53.096;5.844;2023-03-01T04:31:03;6.13;;;4.15;;
49910;SDS011;35803;53.096;5.844;2023-03-01T04:33:45;13.80;;;4.50;;
49910;SDS011;35803;53.096;5.844;2023-03-01T04:36:13;14.23;;;4.50;;
49910;SDS011;35803;53.096;5.844;2023-03-01T04:38:40;18.45;;;4.78;;
49910;SDS011;35803;53.096;5.844;2023-03-01T04:41:07;14.43;;;4.43;;
49910;SDS011;35803;53.096;5.844;2023-03-01T04:43:34;14.52;;;5.07;;
49910;SDS011;35803;53.096;5.844;2023-03-01T04:46:01;9.63;;;4.50;;
49910;SDS011;35803;53.096;5.844;2023-03-01T04:48:28;16.98;;;5.60;;
49910;SDS011;35803;53.096;5.844;2023-03-01T04:50:54;11.00;;;4.85;;
49910;SDS011;35803;53.096;5.844;2023-03-01T04:53:19;23.80;;;5.63;;
49910;SDS011;35803;53.096;5.844;2023-03-01T04:55:45;20.23;;;5.47;;
49910;SDS011;35803;53.096;5.844;2023-03-01T04:58:10;28.80;;;6.05;;
49910;SDS011;35803;53.096;5.844;2023-03-01T05:00:36;17.35;;;5.60;;
49910;SDS011;35803;53.096;5.844;2023-03-01T05:03:02;11.90;;;4.75;;
49910;SDS011;35803;53.096;5.844;2023-03-01T05:05:29;16.08;;;5.40;;
49910;SDS011;35803;53.096;5.844;2023-03-01T05:08:00;22.02;;;5.68;;
49910;SDS011;35803;53.096;5.844;2023-03-01T05:10:27;31.45;;;5.85;;
49910;SDS011;35803;53.096;5.844;2023-03-01T05:12:55;15.43;;;4.85;;
49910;SDS011;35803;53.096;5.844;2023-03-01T05:15:22;11.32;;;4.85;;
49910;SDS011;35803;53.096;5.844;2023-03-01T05:17:51;26.50;;;5.55;;
49910;SDS011;35803;53.096;5.844;2023-03-01T05:20:17;26.33;;;5.53;;
49910;SDS011;35803;53.096;5.844;2023-03-01T05:22:42;21.52;;;6.20;;
49910;SDS011;35803;53.096;5.844;2023-03-01T05:25:08;19.20;;;6.13;;
49910;SDS011;35803;53.096;5.844;2023-03-01T05:27:34;24.60;;;6.45;;
49910;SDS011;35803;53.096;5.844;2023-03-01T05:30:00;16.90;;;5.47;;
49910;SDS011;35803;53.096;5.844;2023-03-01T05:32:42;21.40;;;5.35;;
49910;SDS011;35803;53.096;5.844;2023-03-01T05:35:10;8.25;;;4.78;;
49910;SDS011;35803;53.096;5.844;2023-03-01T05:37:40;12.82;;;4.97;;
49910;SDS011;35803;53.096;5.844;2023-03-01T05:40:15;17.65;;;5.45;;
49910;SDS011;35803;53.096;5.844;2023-03-01T05:42:46;14.98;;;4.72;;
49910;SDS011;35803;53.096;5.844;2023-03-01T05:45:13;16.02;;;5.22;;
49910;SDS011;35803;53.096;5.844;2023-03-01T05:47:40;30.30;;;5.43;;
49910;SDS011;35803;53.096;5.844;2023-03-01T05:50:12;8.88;;;5.38;;
49910;SDS011;35803;53.096;5.844;2023-03-01T05:52:39;11.70;;;4.82;;
49910;SDS011;35803;53.096;5.844;2023-03-01T05:55:05;7.95;;;5.22;;
49910;SDS011;35803;53.096;5.844;2023-03-01T05:57:31;11.95;;;5.28;;
49910;SDS011;35803;53.096;5.844;2023-03-01T05:59:56;19.58;;;4.72;;
49910;SDS011;35803;53.096;5.844;2023-03-01T06:02:22;23.30;;;4.95;;
49910;SDS011;35803;53.096;5.844;2023-03-01T06:04:48;11.77;;;4.88;;
49910;SDS011;35803;53.096;5.844;2023-03-01T06:07:13;13.98;;;5.20;;
49910;SDS011;35803;53.096;5.844;2023-03-01T06:09:39;16.02;;;5.32;;
49910;SDS011;35803;53.096;5.844;2023-03-01T06:12:04;11.82;;;5.70;;
49910;SDS011;35803;53.096;5.844;2023-03-01T06:14:30;26.10;;;6.07;;
49910;SDS011;35803;53.096;5.844;2023-03-01T06:16:56;15.70;;;5.35;;
49910;SDS011;35803;53.096;5.844;2023-03-01T06:19:21;12.77;;;4.80;;
49910;SDS011;35803;53.096;5.844;2023-03-01T06:21:50;30.98;;;5.28;;
49910;SDS011;35803;53.096;5.844;2023-03-01T06:24:15;32.78;;;5.15;;
49910;SDS011;35803;53.096;5.844;2023-03-01T06:26:41;11.68;;;5.07;;
49910;SDS011;35803;53.096;5.844;2023-03-01T06:29:06;28.40;;;4.95;;
49910;SDS011;35803;53.096;5.844;2023-03-01T06:31:33;38.60;;;5.32;;
49910;SDS011;35803;53.096;5.844;2023-03-01T06:33:59;11.77;;;5.50;;
49910;SDS011;35803;53.096;5.844;2023-03-01T06:36:25;24.27;;;5.88;;
49910;SDS011;35803;53.096;5.844;2023-03-01T06:38:50;40.30;;;6.10;;
49910;SDS011;35803;53.096;5.844;2023-03-01T06:41:16;21.65;;;5.60;;
49910;SDS011;35803;53.096;5.844;2023-03-01T06:43:41;22.05;;;5.38;;
49910;SDS011;35803;53.096;5.844;2023-03-01T06:46:07;31.60;;;5.32;;
49910;SDS011;35803;53.096;5.844;2023-03-01T06:48:33;17.73;;;5.22;;
49910;SDS011;35803;53.096;5.844;2023-03-01T06:50:59;22.38;;;6.57;;
49910;SDS011;35803;53.096;5.844;2023-03-01T06:53:26;17.80;;;6.97;;
49910;SDS011;35803;53.096;5.844;2023-03-01T06:55:56;14.50;;;5.18;;
49910;SDS011;35803;53.096;5.844;2023-03-01T06:58:22;20.20;;;5.47;;
49910;SDS011;35803;53.096;5.844;2023-03-01T07:00:48;9.55;;;4.88;;
49910;SDS011;35803;53.096;5.844;2023-03-01T07:03:13;27.05;;;5.57;;
49910;SDS011;35803;53.096;5.844;2023-03-01T07:05:39;23.98;;;5.50;;
49910;SDS011;35803;53.096;5.844;2023-03-01T07:08:04;11.43;;;4.80;;
49910;SDS011;35803;53.096;5.844;2023-03-01T07:10:30;19.33;;;5.25;;
49910;SDS011;35803;53.096;5.844;2023-03-01T07:12:56;23.40;;;5.60;;
49910;SDS011;35803;53.096;5.844;2023-03-01T07:15:22;32.33;;;4.82;;
49910;SDS011;35803;53.096;5.844;2023-03-01T07:17:48;12.30;;;5.05;;
49910;SDS011;35803;53.096;5.844;2023-03-01T07:20:16;22.55;;;6.03;;
49910;SDS011;35803;53.096;5.844;2023-03-01T07:22:42;14.15;;;5.57;;
49910;SDS011;35803;53.096;5.844;2023-03-01T07:25:08;30.58;;;6.10;;
49910;SDS011;35803;53.096;5.844;2023-03-01T07:27:34;21.08;;;5.85;;
49910;SDS011;35803;53.096;5.844;2023-03-01T07:30:00;28.25;;;6.18;;
49910;SDS011;35803;53.096;5.844;2023-03-01T07:32:25;24.40;;;5.78;;
49910;SDS011;35803;53.096;5.844;2023-03-01T07:34:51;12.85;;;5.40;;
49910;SDS011;35803;53.096;5.844;2023-03-01T07:37:16;10.75;;;5.18;;
49910;SDS011;35803;53.096;5.844;2023-03-01T07:39:42;24.65;;;6.60;;
49910;SDS011;35803;53.096;5.844;2023-03-01T07:42:08;15.73;;;5.70;;
49910;SDS011;35803;53.096;5.844;2023-03-01T07:44:33;18.35;;;5.72;;
49910;SDS011;35803;53.096;5.844;2023-03-01T07:47:03;22.52;;;6.60;;
49910;SDS011;35803;53.096;5.844;2023-03-01T07:49:29;21.40;;;6.25;;
49910;SDS011;35803;53.096;5.844;2023-03-01T07:51:54;16.85;;;6.30;;
49910;SDS011;35803;53.096;5.844;2023-03-01T07:54:20;15.65;;;6.55;;
49910;SDS011;35803;53.096;5.844;2023-03-01T07:56:45;15.85;;;6.57;;
49910;SDS011;35803;53.096;5.844;2023-03-01T07:59:11;11.10;;;6.18;;
49910;SDS011;35803;53.096;5.844;2023-03-01T08:01:37;12.50;;;7.13;;
49910;SDS011;35803;53.096;5.844;2023-03-01T08:04:02;11.25;;;7.00;;
49910;SDS011;35803;53.096;5.844;2023-03-01T08:06:29;14.95;;;7.80;;
49910;SDS011;35803;53.096;5.844;2023-03-01T08:08:56;16.30;;;8.38;;
49910;SDS011;35803;53.096;5.844;2023-03-01T08:11:21;15.95;;;9.00;;
49910;SDS011;35803;53.096;5.844;2023-03-01T08:13:47;17.02;;;8.63;;
49910;SDS011;35803;53.096;5.844;2023-03-01T08:16:14;11.05;;;7.53;;
49910;SDS011;35803;53.096;5.844;2023-03-01T08:18:40;14.63;;;8.13;;
49910;SDS011;35803;53.096;5.844;2023-03-01T08:21:08;13.15;;;7.80;;
49910;SDS011;35803;53.096;5.844;2023-03-01T08:23:37;14.20;;;7.70;;
49910;SDS011;35803;53.096;5.844;2023-03-01T08:26:07;14.63;;;7.93;;
49910;SDS011;35803;53.096;5.844;2023-03-01T08:28:34;15.32;;;9.02;;
49910;SDS011;35803;53.096;5.844;2023-03-01T08:31:00;14.93;;;8.82;;
49910;SDS011;35803;53.096;5.844;2023-03-01T08:33:26;14.43;;;8.82;;
49910;SDS011;35803;53.096;5.844;2023-03-01T08:35:51;13.95;;;8.40;;
49910;SDS011;35803;53.096;5.844;2023-03-01T08:38:17;12.55;;;7.32;;
49910;SDS011;35803;53.096;5.844;2023-03-01T08:40:43;13.70;;;8.13;;
49910;SDS011;35803;53.096;5.844;2023-03-01T08:43:08;14.35;;;8.52;;
49910;SDS011;35803;53.096;5.844;2023-03-01T08:45:34;14.80;;;8.07;;
49910;SDS011;35803;53.096;5.844;2023-03-01T08:48:01;14.13;;;8.05;;
49910;SDS011;35803;53.096;5.844;2023-03-01T08:50:27;13.90;;;8.82;;
49910;SDS011;35803;53.096;5.844;2023-03-01T08:52:52;17.17;;;9.60;;
49910;SDS011;35803;53.096;5.844;2023-03-01T08:55:18;15.73;;;9.07;;
49910;SDS011;35803;53.096;5.844;2023-03-01T08:57:43;16.25;;;9.25;;
49910;SDS011;35803;53.096;5.844;2023-03-01T09:00:09;16.35;;;9.52;;
49910;SDS011;35803;53.096;5.844;2023-03-01T09:02:36;15.00;;;8.65;;
49910;SDS011;35803;53.096;5.844;2023-03-01T09:05:02;16.48;;;9.07;;
49910;SDS011;35803;53.096;5.844;2023-03-01T09:07:28;15.43;;;9.15;;
49910;SDS011;35803;53.096;5.844;2023-03-01T09:09:53;19.20;;;9.65;;
49910;SDS011;35803;53.096;5.844;2023-03-01T09:12:20;16.52;;;8.90;;
49910;SDS011;35803;53.096;5.844;2023-03-01T09:14:46;14.00;;;8.57;;
49910;SDS011;35803;53.096;5.844;2023-03-01T09:17:11;16.23;;;9.07;;
49910;SDS011;35803;53.096;5.844;2023-03-01T09:19:37;16.50;;;9.48;;
49910;SDS011;35803;53.096;5.844;2023-03-01T09:22:03;17.80;;;9.38;;
49910;SDS011;35803;53.096;5.844;2023-03-01T09:24:29;17.48;;;9.35;;
49910;SDS011;35803;53.096;5.844;2023-03-01T09:26:55;15.73;;;9.27;;
49910;SDS011;35803;53.096;5.844;2023-03-01T09:29:21;16.60;;;9.38;;
49910;SDS011;35803;53.096;5.844;2023-03-01T09:31:47;18.55;;;10.23;;
49910;SDS011;35803;53.096;5.844;2023-03-01T09:34:13;17.70;;;9.80;;
49910;SDS011;35803;53.096;5.844;2023-03-01T09:39:16;18.58;;;9.82;;
49910;SDS011;35803;53.096;5.844;2023-03-01T09:41:47;17.40;;;10.18;;
49910;SDS011;35803;53.096;5.844;2023-03-01T09:44:21;18.83;;;9.80;;
49910;SDS011;35803;53.096;5.844;2023-03-01T09:46:52;17.75;;;10.15;;
49910;SDS011;35803;53.096;5.844;2023-03-01T09:49:19;20.20;;;10.50;;
49910;SDS011;35803;53.096;5.844;2023-03-01T09:54:46;17.30;;;9.75;;
49910;SDS011;35803;53.096;5.844;2023-03-01T10:04:47;18.08;;;10.02;;
49910;SDS011;35803;53.096;5.844;2023-03-01T10:10:07;16.52;;;9.10;;
49910;SDS011;35803;53.096;5.844;2023-03-01T10:12:34;17.73;;;10.68;;
49910;SDS011;35803;53.096;5.844;2023-03-01T10:20:13;17.00;;;10.05;;
49910;SDS011;35803;53.096;5.844;2023-03-01T10:22:46;16.73;;;9.27;;
49910;SDS011;35803;53.096;5.844;2023-03-01T10:25:17;17.38;;;9.63;;
49910;SDS011;35803;53.096;5.844;2023-03-01T10:28:10;16.92;;;9.27;;
49910;SDS011;35803;53.096;5.844;2023-03-01T10:30:38;19.23;;;10.23;;
49910;SDS011;35803;53.096;5.844;2023-03-01T10:33:26;18.55;;;9.75;;
49910;SDS011;35803;53.096;5.844;2023-03-01T10:35:54;19.63;;;10.55;;
49910;SDS011;35803;53.096;5.844;2023-03-01T10:38:19;17.70;;;9.07;;
49910;SDS011;35803;53.096;5.844;2023-03-01T10:43:32;19.98;;;10.05;;
49910;SDS011;35803;53.096;5.844;2023-03-01T10:51:50;22.23;;;10.70;;
49910;SDS011;35803;53.096;5.844;2023-03-01T10:54:21;19.35;;;10.32;;
49910;SDS011;35803;53.096;5.844;2023-03-01T10:56:57;22.73;;;11.13;;
49910;SDS011;35803;53.096;5.844;2023-03-01T11:04:52;19.73;;;11.38;;
49910;SDS011;35803;53.096;5.844;2023-03-01T11:07:22;25.45;;;12.52;;
49910;SDS011;35803;53.096;5.844;2023-03-01T11:09:47;21.70;;;11.63;;
49910;SDS011;35803;53.096;5.844;2023-03-01T11:12:14;21.75;;;11.25;;
49910;SDS011;35803;53.096;5.844;2023-03-01T11:14:48;23.17;;;12.95;;
49910;SDS011;35803;53.096;5.844;2023-03-01T11:17:17;25.20;;;13.27;;
49910;SDS011;35803;53.096;5.844;2023-03-01T11:22:45;25.30;;;12.73;;
49910;SDS011;35803;53.096;5.844;2023-03-01T11:25:13;19.63;;;11.43;;
49910;SDS011;35803;53.096;5.844;2023-03-01T11:27:40;24.33;;;12.35;;
49910;SDS011;35803;53.096;5.844;2023-03-01T11:30:19;22.67;;;11.85;;
49910;SDS011;35803;53.096;5.844;2023-03-01T11:32:53;23.60;;;12.23;;
49910;SDS011;35803;53.096;5.844;2023-03-01T11:35:24;20.13;;;11.52;;
49910;SDS011;35803;53.096;5.844;2023-03-01T11:37:59;21.15;;;11.52;;
49910;SDS011;35803;53.096;5.844;2023-03-01T11:40:29;21.08;;;11.77;;
49910;SDS011;35803;53.096;5.844;2023-03-01T11:56:56;18.05;;;9.85;;
49910;SDS011;35803;53.096;5.844;2023-03-01T12:04:54;15.98;;;9.40;;
49910;SDS011;35803;53.096;5.844;2023-03-01T12:12:53;18.17;;;9.50;;
49910;SDS011;35803;53.096;5.844;2023-03-01T12:26:06;14.10;;;8.77;;
49910;SDS011;35803;53.096;5.844;2023-03-01T12:28:53;13.77;;;8.43;;
49910;SDS011;35803;53.096;5.844;2023-03-01T12:32:04;15.65;;;8.75;;
49910;SDS011;35803;53.096;5.844;2023-03-01T12:34:38;16.38;;;9.32;;
49910;SDS011;35803;53.096;5.844;2023-03-01T12:43:03;15.65;;;8.20;;
49910;SDS011;35803;53.096;5.844;2023-03-01T12:51:14;14.23;;;7.50;;
49910;SDS011;35803;53.096;5.844;2023-03-01T12:53:44;14.25;;;8.65;;
49910;SDS011;35803;53.096;5.844;2023-03-01T12:56:14;16.23;;;8.95;;
49910;SDS011;35803;53.096;5.844;2023-03-01T12:58:49;11.52;;;8.23;;
49910;SDS011;35803;53.096;5.844;2023-03-01T13:04:29;17.48;;;9.65;;
49910;SDS011;35803;53.096;5.844;2023-03-01T13:09:51;14.38;;;7.90;;
49910;SDS011;35803;53.096;5.844;2023-03-01T13:17:51;13.90;;;8.20;;
49910;SDS011;35803;53.096;5.844;2023-03-01T13:30:59;16.33;;;8.75;;
49910;SDS011;35803;53.096;5.844;2023-03-01T13:35:54;13.90;;;9.02;;
49910;SDS011;35803;53.096;5.844;2023-03-01T13:41:02;15.40;;;9.48;;
49910;SDS011;35803;53.096;5.844;2023-03-01T13:43:35;17.45;;;9.65;;
49910;SDS011;35803;53.096;5.844;2023-03-01T13:46:08;16.67;;;9.57;;
49910;SDS011;35803;53.096;5.844;2023-03-01T13:48:54;13.35;;;7.72;;
49910;SDS011;35803;53.096;5.844;2023-03-01T13:51:23;13.35;;;8.05;;
49910;SDS011;35803;53.096;5.844;2023-03-01T13:53:53;18.15;;;8.82;;
49910;SDS011;35803;53.096;5.844;2023-03-01T13:56:20;15.90;;;8.77;;
49910;SDS011;35803;53.096;5.844;2023-03-01T13:58:50;13.35;;;7.22;;
49910;SDS011;35803;53.096;5.844;2023-03-01T14:03:52;13.13;;;7.40;;
49910;SDS011;35803;53.096;5.844;2023-03-01T14:06:25;13.38;;;7.97;;
49910;SDS011;35803;53.096;5.844;2023-03-01T14:09:00;13.30;;;7.85;;
49910;SDS011;35803;53.096;5.844;2023-03-01T14:14:41;11.32;;;6.95;;
49910;SDS011;35803;53.096;5.844;2023-03-01T14:22:45;15.00;;;8.02;;
49910;SDS011;35803;53.096;5.844;2023-03-01T14:25:20;16.55;;;8.35;;
49910;SDS011;35803;53.096;5.844;2023-03-01T14:27:56;14.13;;;8.15;;
49910;SDS011;35803;53.096;5.844;2023-03-01T14:30:35;12.45;;;7.45;;
49910;SDS011;35803;53.096;5.844;2023-03-01T14:33:04;12.30;;;7.18;;
49910;SDS011;35803;53.096;5.844;2023-03-01T14:35:33;14.93;;;8.07;;
49910;SDS011;35803;53.096;5.844;2023-03-01T14:38:00;14.75;;;7.90;;
49910;SDS011;35803;53.096;5.844;2023-03-01T14:42:59;12.63;;;7.53;;
49910;SDS011;35803;53.096;5.844;2023-03-01T14:45:26;15.77;;;8.10;;
49910;SDS011;35803;53.096;5.844;2023-03-01T14:47:53;11.65;;;7.38;;
49910;SDS011;35803;53.096;5.844;2023-03-01T14:50:25;15.23;;;7.25;;
49910;SDS011;35803;53.096;5.844;2023-03-01T14:52:56;14.52;;;7.68;;
49910;SDS011;35803;53.096;5.844;2023-03-01T14:55:29;13.20;;;8.65;;
49910;SDS011;35803;53.096;5.844;2023-03-01T14:57:56;15.73;;;8.07;;
49910;SDS011;35803;53.096;5.844;2023-03-01T15:00:29;14.50;;;7.97;;
49910;SDS011;35803;53.096;5.844;2023-03-01T15:02:56;13.07;;;6.63;;
49910;SDS011;35803;53.096;5.844;2023-03-01T15:05:25;13.55;;;8.45;;
49910;SDS011;35803;53.096;5.844;2023-03-01T15:07:53;12.77;;;7.90;;
49910;SDS011;35803;53.096;5.844;2023-03-01T15:10:20;13.07;;;7.60;;
49910;SDS011;35803;53.096;5.844;2023-03-01T15:12:47;13.50;;;8.15;;
49910;SDS011;35803;53.096;5.844;2023-03-01T15:15:29;13.80;;;8.05;;
49910;SDS011;35803;53.096;5.844;2023-03-01T15:17:58;13.90;;;8.32;;
49910;SDS011;35803;53.096;5.844;2023-03-01T15:20:25;13.35;;;7.43;;
49910;SDS011;35803;53.096;5.844;2023-03-01T15:22:54;13.65;;;7.07;;
49910;SDS011;35803;53.096;5.844;2023-03-01T15:25:25;12.63;;;7.32;;
49910;SDS011;35803;53.096;5.844;2023-03-01T15:27:52;13.50;;;7.32;;
49910;SDS011;35803;53.096;5.844;2023-03-01T15:32:54;11.60;;;7.22;;
49910;SDS011;35803;53.096;5.844;2023-03-01T15:35:52;12.65;;;7.03;;
49910;SDS011;35803;53.096;5.844;2023-03-01T15:41:04;13.32;;;7.18;;
49910;SDS011;35803;53.096;5.844;2023-03-01T15:43:46;12.05;;;6.65;;
49910;SDS011;35803;53.096;5.844;2023-03-01T15:46:22;13.77;;;7.47;;
49910;SDS011;35803;53.096;5.844;2023-03-01T15:49:00;13.27;;;7.13;;
49910;SDS011;35803;53.096;5.844;2023-03-01T15:51:29;12.40;;;6.97;;
49910;SDS011;35803;53.096;5.844;2023-03-01T15:54:00;14.73;;;7.65;;
49910;SDS011;35803;53.096;5.844;2023-03-01T15:56:28;14.32;;;7.18;;
49910;SDS011;35803;53.096;5.844;2023-03-01T15:58:57;14.27;;;7.35;;
49910;SDS011;35803;53.096;5.844;2023-03-01T16:01:29;13.38;;;7.28;;
49910;SDS011;35803;53.096;5.844;2023-03-01T16:03:55;12.68;;;6.82;;
49910;SDS011;35803;53.096;5.844;2023-03-01T16:06:23;15.18;;;7.47;;
49910;SDS011;35803;53.096;5.844;2023-03-01T16:08:48;14.07;;;8.00;;
49910;SDS011;35803;53.096;5.844;2023-03-01T16:11:15;14.15;;;7.38;;
49910;SDS011;35803;53.096;5.844;2023-03-01T16:13:42;14.57;;;7.72;;
49910;SDS011;35803;53.096;5.844;2023-03-01T16:16:11;11.98;;;6.90;;
49910;SDS011;35803;53.096;5.844;2023-03-01T16:18:40;14.95;;;8.18;;
49910;SDS011;35803;53.096;5.844;2023-03-01T16:21:10;14.98;;;7.90;;
49910;SDS011;35803;53.096;5.844;2023-03-01T16:23:37;15.48;;;8.20;;
49910;SDS011;35803;53.096;5.844;2023-03-01T16:26:03;13.68;;;7.63;;
49910;SDS011;35803;53.096;5.844;2023-03-01T16:28:28;15.60;;;8.10;;
49910;SDS011;35803;53.096;5.844;2023-03-01T16:30:54;17.23;;;7.78;;
49910;SDS011;35803;53.096;5.844;2023-03-01T16:33:19;15.93;;;8.27;;
49910;SDS011;35803;53.096;5.844;2023-03-01T16:35:45;13.98;;;7.75;;
49910;SDS011;35803;53.096;5.844;2023-03-01T16:38:11;15.38;;;7.68;;
49910;SDS011;35803;53.096;5.844;2023-03-01T16:40:36;14.95;;;7.60;;
49910;SDS011;35803;53.096;5.844;2023-03-01T16:43:02;15.48;;;7.90;;
49910;SDS011;35803;53.096;5.844;2023-03-01T16:45:29;14.63;;;7.97;;
49910;SDS011;35803;53.096;5.844;2023-03-01T16:48:00;13.27;;;7.57;;
49910;SDS011;35803;53.096;5.844;2023-03-01T16:50:27;13.32;;;7.10;;
49910;SDS011;35803;53.096;5.844;2023-03-01T16:52:52;12.85;;;7.47;;
49910;SDS011;35803;53.096;5.844;2023-03-01T16:55:18;14.07;;;7.35;;
49910;SDS011;35803;53.096;5.844;2023-03-01T16:57:43;14.02;;;7.65;;
49910;SDS011;35803;53.096;5.844;2023-03-01T17:00:09;16.17;;;7.80;;
49910;SDS011;35803;53.096;5.844;2023-03-01T17:02:37;13.68;;;7.38;;
49910;SDS011;35803;53.096;5.844;2023-03-01T17:05:03;14.35;;;7.13;;